Terminal Aerodrome Forecast
Issued by NWS

Home | Current Version | Previous Version | Text Only | Print | Product List | Glossary On
Versions: 1 2 3 4 5 6 7 8 9 10 11 12 13 14 15 16 17 18 19 20 21 22
000
FTUS43 KDLH 230650 AAA
TAFHYR
TAF AMD
KHYR 230650Z 2307/2406 16009KT P6SM VCSH OVC050
      TEMPO 2307/2308 17011G24KT 2SM -SN BKN022
     FM232000 17010G18KT 5SM -RA BR SCT010 BKN025
     FM240000 16005KT 3SM -RA BR BKN008 OVC010=

USA.gov is the U.S. government's official web portal to all federal, state and local government web resources and services.